EJU47KY LIEO-LFLL
Flight info
| Callsign | EJU47KY |
|---|---|
| Flight time | 1h 9m |
| Altitude | 38000 |
| Route | OKIVA P980 DIKEL DCT RATAP DCT MEGER DCT ERTEV DCT TOP/N0372F240 DCT RONOP DCT GIGUS/N0388F270 Z40 AMVAR |
| Aircraft | A319/M-SDE2E3FGIJ1RWXYZ/LB1 |
Departure
| Time | 2026-04-29 11:50 |
|---|---|
| Airport | Olbia Costa Smeralda Airport (LIEO) |
Arrival
| Time | 2026-04-29 13:00 |
|---|---|
| Airport | Lyon Saint-Exupéry Airport (LFLL) |
| Time | Latitude | Longitude | Altitude | Speed | Heading |
|---|---|---|---|---|---|
| 2026-04-29 11:22 | 40.90116 | 9.51395 | 34 ft | 0 kts | 24° |
| 2026-04-29 11:23 | 40.90114 | 9.51394 | 34 ft | 0 kts | 24° |
| 2026-04-29 11:45 | 40.90115 | 9.51408 | 34 ft | 3 kts | 102° |
| 2026-04-29 11:45 | 40.90100 | 9.51414 | 33 ft | 2 kts | 175° |
| 2026-04-29 11:45 | 40.90083 | 9.51419 | 34 ft | 2 kts | 152° |
| 2026-04-29 11:45 | 40.90074 | 9.51431 | 34 ft | 4 kts | 130° |
| 2026-04-29 11:46 | 40.90053 | 9.51472 | 34 ft | 7 kts | 134° |
| 2026-04-29 11:46 | 40.90002 | 9.51515 | 34 ft | 8 kts | 155° |
| 2026-04-29 11:46 | 40.89951 | 9.51507 | 32 ft | 7 kts | 207° |
| 2026-04-29 11:46 | 40.89907 | 9.51448 | 34 ft | 11 kts | 232° |
| 2026-04-29 11:47 | 40.89858 | 9.51359 | 34 ft | 12 kts | 236° |
| 2026-04-29 11:47 | 40.89810 | 9.51263 | 34 ft | 13 kts | 235° |
| 2026-04-29 11:47 | 40.89756 | 9.51161 | 34 ft | 14 kts | 235° |
| 2026-04-29 11:47 | 40.89696 | 9.51047 | 34 ft | 16 kts | 234° |
| 2026-04-29 11:48 | 40.89627 | 9.50919 | 33 ft | 18 kts | 236° |
| 2026-04-29 11:48 | 40.89552 | 9.50773 | 34 ft | 20 kts | 235° |
| 2026-04-29 11:48 | 40.89475 | 9.50628 | 34 ft | 17 kts | 235° |
| 2026-04-29 11:48 | 40.89406 | 9.50497 | 34 ft | 16 kts | 234° |
| 2026-04-29 11:49 | 40.89337 | 9.50440 | 34 ft | 12 kts | 192° |
| 2026-04-29 11:49 | 40.89280 | 9.50495 | 34 ft | 12 kts | 97° |
| 2026-04-29 11:49 | 40.89268 | 9.50609 | 35 ft | 12 kts | 89° |
| 2026-04-29 11:49 | 40.89315 | 9.50708 | 34 ft | 16 kts | 56° |
| 2026-04-29 11:50 | 40.89508 | 9.51078 | 33 ft | 91 kts | 55° |
| 2026-04-29 11:50 | 40.89995 | 9.52015 | 87 ft | 148 kts | 60° |
| 2026-04-29 11:50 | 40.90552 | 9.53137 | 790 ft | 145 kts | 60° |
| 2026-04-29 11:50 | 40.91132 | 9.54255 | 1441 ft | 153 kts | 58° |
| 2026-04-29 11:51 | 40.91790 | 9.55481 | 1897 ft | 174 kts | 61° |
| 2026-04-29 11:51 | 40.92531 | 9.56881 | 2299 ft | 197 kts | 60° |
| 2026-04-29 11:51 | 40.93364 | 9.58456 | 2670 ft | 220 kts | 59° |
| 2026-04-29 11:51 | 40.94284 | 9.60187 | 3068 ft | 242 kts | 57° |
| 2026-04-29 11:52 | 40.95284 | 9.62061 | 3717 ft | 253 kts | 58° |
| 2026-04-29 11:52 | 40.96313 | 9.63976 | 4578 ft | 258 kts | 57° |
| 2026-04-29 11:52 | 40.97626 | 9.65614 | 5465 ft | 266 kts | 30° |
| 2026-04-29 11:52 | 40.99411 | 9.66269 | 6319 ft | 274 kts | 0° |
| 2026-04-29 11:53 | 41.01291 | 9.65659 | 6901 ft | 286 kts | 327° |
| 2026-04-29 11:53 | 41.02949 | 9.64180 | 7789 ft | 288 kts | 322° |
| 2026-04-29 11:53 | 41.04601 | 9.62664 | 8783 ft | 290 kts | 322° |
| 2026-04-29 11:53 | 41.06268 | 9.61148 | 9778 ft | 292 kts | 322° |
| 2026-04-29 11:54 | 41.07901 | 9.59512 | 10509 ft | 301 kts | 314° |
| 2026-04-29 11:54 | 41.09299 | 9.57339 | 10943 ft | 317 kts | 302° |
| 2026-04-29 11:54 | 41.10590 | 9.54923 | 11700 ft | 324 kts | 303° |
| 2026-04-29 11:54 | 41.11910 | 9.52485 | 12565 ft | 327 kts | 303° |
| 2026-04-29 11:55 | 41.13247 | 9.50038 | 13458 ft | 329 kts | 303° |
| 2026-04-29 11:55 | 41.14600 | 9.47570 | 14264 ft | 333 kts | 303° |
| 2026-04-29 11:55 | 41.15967 | 9.45077 | 14986 ft | 336 kts | 303° |
| 2026-04-29 11:55 | 41.17346 | 9.42557 | 15724 ft | 339 kts | 303° |
| 2026-04-29 11:56 | 41.18733 | 9.40011 | 16434 ft | 343 kts | 303° |
| 2026-04-29 11:56 | 41.20134 | 9.37431 | 17138 ft | 346 kts | 303° |
| 2026-04-29 11:56 | 41.21554 | 9.34822 | 17815 ft | 351 kts | 303° |
| 2026-04-29 11:56 | 41.22978 | 9.32177 | 18510 ft | 353 kts | 302° |
| 2026-04-29 11:57 | 41.24354 | 9.29455 | 19131 ft | 356 kts | 301° |
| 2026-04-29 11:57 | 41.25695 | 9.26672 | 19730 ft | 359 kts | 300° |
| 2026-04-29 11:57 | 41.27030 | 9.23843 | 20331 ft | 363 kts | 300° |
| 2026-04-29 11:57 | 41.28378 | 9.20982 | 20910 ft | 367 kts | 300° |
| 2026-04-29 11:58 | 41.29746 | 9.18103 | 21550 ft | 369 kts | 300° |
| 2026-04-29 11:58 | 41.31302 | 9.15363 | 22151 ft | 375 kts | 311° |
| 2026-04-29 11:58 | 41.33334 | 9.13142 | 22718 ft | 383 kts | 326° |
| 2026-04-29 11:58 | 41.35759 | 9.11600 | 23269 ft | 391 kts | 339° |
| 2026-04-29 11:59 | 41.38447 | 9.10884 | 23807 ft | 399 kts | 354° |
| 2026-04-29 11:59 | 41.41238 | 9.10902 | 24299 ft | 403 kts | 360° |
| 2026-04-29 11:59 | 41.44050 | 9.11002 | 24822 ft | 405 kts | 359° |
| 2026-04-29 11:59 | 41.46873 | 9.11100 | 25325 ft | 407 kts | 359° |
| 2026-04-29 12:00 | 41.49711 | 9.11195 | 25816 ft | 409 kts | 359° |
| 2026-04-29 12:00 | 41.52564 | 9.11289 | 26278 ft | 412 kts | 359° |
| 2026-04-29 12:00 | 41.55441 | 9.11379 | 26738 ft | 414 kts | 359° |
| 2026-04-29 12:00 | 41.58325 | 9.11417 | 27173 ft | 416 kts | 358° |
| 2026-04-29 12:01 | 41.61229 | 9.11403 | 27608 ft | 418 kts | 357° |
| 2026-04-29 12:01 | 41.64146 | 9.11357 | 28047 ft | 421 kts | 357° |
| 2026-04-29 12:01 | 41.67088 | 9.11301 | 28490 ft | 424 kts | 357° |
| 2026-04-29 12:01 | 41.70044 | 9.11249 | 28925 ft | 426 kts | 357° |
| 2026-04-29 12:02 | 41.73018 | 9.11207 | 29346 ft | 429 kts | 357° |
| 2026-04-29 12:02 | 41.76014 | 9.11179 | 29766 ft | 432 kts | 358° |
| 2026-04-29 12:02 | 41.79025 | 9.11162 | 30153 ft | 434 kts | 358° |
| 2026-04-29 12:02 | 41.82057 | 9.11148 | 30496 ft | 437 kts | 358° |
| 2026-04-29 12:03 | 41.85099 | 9.11131 | 30855 ft | 439 kts | 357° |
| 2026-04-29 12:03 | 41.88160 | 9.11108 | 31222 ft | 440 kts | 358° |
| 2026-04-29 12:03 | 41.91224 | 9.11087 | 31549 ft | 442 kts | 358° |
| 2026-04-29 12:03 | 41.94303 | 9.11067 | 31955 ft | 442 kts | 358° |
| 2026-04-29 12:04 | 41.97370 | 9.11048 | 32419 ft | 441 kts | 358° |
| 2026-04-29 12:04 | 42.00436 | 9.11027 | 32883 ft | 440 kts | 358° |
| 2026-04-29 12:04 | 42.03495 | 9.10999 | 33343 ft | 439 kts | 358° |
| 2026-04-29 12:04 | 42.06544 | 9.10969 | 33817 ft | 438 kts | 358° |
| 2026-04-29 12:05 | 42.09593 | 9.10943 | 34261 ft | 438 kts | 357° |
| 2026-04-29 12:05 | 42.12634 | 9.10919 | 34648 ft | 437 kts | 357° |
| 2026-04-29 12:05 | 42.15678 | 9.10896 | 35029 ft | 437 kts | 357° |
| 2026-04-29 12:05 | 42.18726 | 9.10870 | 35372 ft | 437 kts | 357° |
| 2026-04-29 12:06 | 42.21751 | 9.10843 | 35697 ft | 437 kts | 357° |
| 2026-04-29 12:06 | 42.24793 | 9.10817 | 36007 ft | 437 kts | 357° |
| 2026-04-29 12:06 | 42.27829 | 9.10793 | 36373 ft | 436 kts | 357° |
| 2026-04-29 12:06 | 42.30864 | 9.10770 | 36702 ft | 436 kts | 356° |
| 2026-04-29 12:07 | 42.33895 | 9.10748 | 36988 ft | 436 kts | 356° |
| 2026-04-29 12:07 | 42.36926 | 9.10725 | 37311 ft | 435 kts | 356° |
| 2026-04-29 12:07 | 42.39955 | 9.10702 | 37635 ft | 435 kts | 356° |
| 2026-04-29 12:07 | 42.42982 | 9.10679 | 37905 ft | 435 kts | 356° |
| 2026-04-29 12:08 | 42.49032 | 9.10631 | 38007 ft | 433 kts | 356° |
| 2026-04-29 12:08 | 42.55057 | 9.10590 | 38005 ft | 433 kts | 356° |
| 2026-04-29 12:09 | 42.61075 | 9.10539 | 38006 ft | 432 kts | 356° |
| 2026-04-29 12:09 | 42.67095 | 9.10471 | 38010 ft | 433 kts | 356° |
| 2026-04-29 12:10 | 42.73120 | 9.10516 | 38010 ft | 435 kts | 2° |
| 2026-04-29 12:10 | 42.79149 | 9.11241 | 38014 ft | 435 kts | 2° |
| 2026-04-29 12:11 | 42.85180 | 9.11945 | 38015 ft | 435 kts | 1° |
| 2026-04-29 12:11 | 42.91216 | 9.12637 | 38034 ft | 435 kts | 1° |
| 2026-04-29 12:12 | 42.97252 | 9.13350 | 38027 ft | 435 kts | 1° |
| 2026-04-29 12:12 | 43.03286 | 9.14067 | 38025 ft | 435 kts | 1° |
| 2026-04-29 12:13 | 43.09318 | 9.14772 | 38038 ft | 435 kts | 1° |
| 2026-04-29 12:13 | 43.15346 | 9.15472 | 38042 ft | 435 kts | 1° |
| 2026-04-29 12:14 | 43.21376 | 9.16178 | 38039 ft | 435 kts | 1° |
| 2026-04-29 12:14 | 43.27400 | 9.16894 | 38062 ft | 434 kts | 1° |
| 2026-04-29 12:15 | 43.33362 | 9.16496 | 38054 ft | 426 kts | 343° |
| 2026-04-29 12:15 | 43.38777 | 9.13636 | 38052 ft | 419 kts | 329° |
| 2026-04-29 12:16 | 43.43951 | 9.09947 | 38052 ft | 419 kts | 329° |
| 2026-04-29 12:16 | 43.49149 | 9.06277 | 38062 ft | 420 kts | 330° |
| 2026-04-29 12:17 | 43.54377 | 9.02584 | 38065 ft | 420 kts | 329° |
| 2026-04-29 12:17 | 43.59530 | 8.98915 | 38066 ft | 419 kts | 329° |
| 2026-04-29 12:18 | 43.64699 | 8.95191 | 38069 ft | 419 kts | 328° |
| 2026-04-29 12:18 | 43.69720 | 8.91142 | 38077 ft | 417 kts | 325° |
| 2026-04-29 12:19 | 43.74673 | 8.86884 | 38078 ft | 416 kts | 325° |
| 2026-04-29 12:19 | 43.79572 | 8.82708 | 38073 ft | 416 kts | 326° |
| 2026-04-29 12:20 | 43.84524 | 8.78562 | 38066 ft | 416 kts | 326° |
| 2026-04-29 12:20 | 43.89509 | 8.74404 | 38078 ft | 415 kts | 326° |
| 2026-04-29 12:21 | 43.94453 | 8.70266 | 38072 ft | 415 kts | 326° |
| 2026-04-29 12:21 | 43.99350 | 8.66143 | 38072 ft | 414 kts | 326° |
| 2026-04-29 12:22 | 44.04265 | 8.61988 | 38065 ft | 414 kts | 326° |
| 2026-04-29 12:22 | 44.09180 | 8.57833 | 38063 ft | 413 kts | 326° |
| 2026-04-29 12:23 | 44.14102 | 8.53685 | 38069 ft | 413 kts | 326° |
| 2026-04-29 12:23 | 44.19011 | 8.49529 | 38074 ft | 413 kts | 326° |
| 2026-04-29 12:24 | 44.23914 | 8.45365 | 38075 ft | 413 kts | 326° |
| 2026-04-29 12:24 | 44.28813 | 8.41192 | 38073 ft | 412 kts | 325° |
| 2026-04-29 12:25 | 44.33704 | 8.37016 | 38088 ft | 412 kts | 325° |
| 2026-04-29 12:26 | 44.40241 | 8.31430 | 38085 ft | 411 kts | 325° |
| 2026-04-29 12:26 | 44.45117 | 8.27253 | 38079 ft | 411 kts | 325° |
| 2026-04-29 12:27 | 44.49987 | 8.23073 | 38072 ft | 410 kts | 325° |
| 2026-04-29 12:27 | 44.54850 | 8.18886 | 38075 ft | 410 kts | 325° |
| 2026-04-29 12:28 | 44.59712 | 8.14692 | 38074 ft | 410 kts | 325° |
| 2026-04-29 12:28 | 44.64579 | 8.10492 | 38077 ft | 411 kts | 325° |
| 2026-04-29 12:29 | 44.69446 | 8.06287 | 38075 ft | 411 kts | 325° |
| 2026-04-29 12:29 | 44.74304 | 8.02061 | 38091 ft | 410 kts | 325° |
| 2026-04-29 12:30 | 44.79160 | 7.97840 | 38086 ft | 410 kts | 325° |
| 2026-04-29 12:30 | 44.84013 | 7.93619 | 38086 ft | 410 kts | 325° |
| 2026-04-29 12:31 | 44.88867 | 7.89378 | 38093 ft | 410 kts | 324° |
| 2026-04-29 12:31 | 44.93045 | 7.84048 | 38096 ft | 403 kts | 305° |
| 2026-04-29 12:32 | 44.95974 | 7.76961 | 38096 ft | 400 kts | 296° |
| 2026-04-29 12:32 | 44.98558 | 7.70011 | 38095 ft | 400 kts | 296° |
| 2026-04-29 12:33 | 45.01189 | 7.63035 | 38118 ft | 400 kts | 296° |
| 2026-04-29 12:33 | 45.03829 | 7.56126 | 38111 ft | 400 kts | 296° |
| 2026-04-29 12:33 | 45.05150 | 7.52658 | 37842 ft | 400 kts | 296° |
| 2026-04-29 12:34 | 45.06463 | 7.49191 | 37601 ft | 400 kts | 296° |
| 2026-04-29 12:34 | 45.07769 | 7.45734 | 37316 ft | 396 kts | 296° |
| 2026-04-29 12:34 | 45.09059 | 7.42312 | 36882 ft | 392 kts | 297° |
| 2026-04-29 12:34 | 45.10331 | 7.38933 | 36449 ft | 387 kts | 297° |
| 2026-04-29 12:35 | 45.11590 | 7.35578 | 36006 ft | 384 kts | 297° |
| 2026-04-29 12:35 | 45.12837 | 7.32253 | 35562 ft | 381 kts | 297° |
| 2026-04-29 12:35 | 45.14081 | 7.28937 | 35115 ft | 378 kts | 297° |
| 2026-04-29 12:35 | 45.15318 | 7.25632 | 34662 ft | 376 kts | 297° |
| 2026-04-29 12:36 | 45.16541 | 7.22365 | 34219 ft | 374 kts | 297° |
| 2026-04-29 12:36 | 45.17754 | 7.19120 | 33736 ft | 371 kts | 297° |
| 2026-04-29 12:36 | 45.18956 | 7.15901 | 33293 ft | 368 kts | 297° |
| 2026-04-29 12:36 | 45.20143 | 7.12709 | 32860 ft | 364 kts | 297° |
| 2026-04-29 12:37 | 45.21320 | 7.09543 | 32420 ft | 362 kts | 297° |
| 2026-04-29 12:37 | 45.22489 | 7.06398 | 31993 ft | 359 kts | 297° |
| 2026-04-29 12:37 | 45.23649 | 7.03276 | 31571 ft | 357 kts | 297° |
| 2026-04-29 12:37 | 45.24805 | 7.00156 | 31150 ft | 356 kts | 297° |
| 2026-04-29 12:38 | 45.25954 | 6.97055 | 30740 ft | 355 kts | 297° |
| 2026-04-29 12:38 | 45.27100 | 6.93963 | 30319 ft | 353 kts | 297° |
| 2026-04-29 12:38 | 45.28247 | 6.90866 | 29894 ft | 352 kts | 297° |
| 2026-04-29 12:38 | 45.29377 | 6.87818 | 29489 ft | 349 kts | 297° |
| 2026-04-29 12:39 | 45.30497 | 6.84787 | 29107 ft | 344 kts | 297° |
| 2026-04-29 12:39 | 45.31600 | 6.81793 | 28738 ft | 340 kts | 297° |
| 2026-04-29 12:39 | 45.32691 | 6.78831 | 28361 ft | 337 kts | 297° |
| 2026-04-29 12:39 | 45.33775 | 6.75883 | 27995 ft | 335 kts | 297° |
| 2026-04-29 12:40 | 45.34850 | 6.72951 | 27641 ft | 334 kts | 297° |
| 2026-04-29 12:40 | 45.35920 | 6.70031 | 27269 ft | 332 kts | 297° |
| 2026-04-29 12:40 | 45.36985 | 6.67122 | 26889 ft | 331 kts | 297° |
| 2026-04-29 12:40 | 45.38042 | 6.64231 | 26503 ft | 329 kts | 297° |
| 2026-04-29 12:41 | 45.39096 | 6.61344 | 26137 ft | 328 kts | 297° |
| 2026-04-29 12:41 | 45.40145 | 6.58472 | 25729 ft | 327 kts | 297° |
| 2026-04-29 12:41 | 45.41190 | 6.55613 | 25332 ft | 325 kts | 297° |
| 2026-04-29 12:41 | 45.42231 | 6.52763 | 24944 ft | 324 kts | 297° |
| 2026-04-29 12:42 | 45.43266 | 6.49921 | 24532 ft | 323 kts | 297° |
| 2026-04-29 12:42 | 45.44299 | 6.47081 | 24131 ft | 322 kts | 297° |
| 2026-04-29 12:42 | 45.45329 | 6.44246 | 23718 ft | 322 kts | 297° |
| 2026-04-29 12:42 | 45.46359 | 6.41415 | 23259 ft | 321 kts | 297° |
| 2026-04-29 12:43 | 45.47381 | 6.38603 | 22854 ft | 319 kts | 297° |
| 2026-04-29 12:43 | 45.48397 | 6.35800 | 22451 ft | 317 kts | 297° |
| 2026-04-29 12:43 | 45.49404 | 6.33017 | 22061 ft | 316 kts | 297° |
| 2026-04-29 12:43 | 45.50410 | 6.30237 | 21673 ft | 314 kts | 297° |
| 2026-04-29 12:44 | 45.51407 | 6.27482 | 21291 ft | 312 kts | 297° |
| 2026-04-29 12:44 | 45.52400 | 6.24734 | 20908 ft | 311 kts | 297° |
| 2026-04-29 12:44 | 45.53389 | 6.21995 | 20530 ft | 310 kts | 296° |
| 2026-04-29 12:44 | 45.54374 | 6.19258 | 20148 ft | 309 kts | 296° |
| 2026-04-29 12:45 | 45.55355 | 6.16533 | 19770 ft | 309 kts | 296° |
| 2026-04-29 12:45 | 45.56340 | 6.13797 | 19390 ft | 309 kts | 296° |
| 2026-04-29 12:45 | 45.57321 | 6.11075 | 19018 ft | 309 kts | 296° |
| 2026-04-29 12:45 | 45.58314 | 6.08312 | 18639 ft | 309 kts | 296° |
| 2026-04-29 12:46 | 45.59306 | 6.05539 | 18248 ft | 310 kts | 296° |
| 2026-04-29 12:46 | 45.60286 | 6.02793 | 17842 ft | 310 kts | 296° |
| 2026-04-29 12:46 | 45.60933 | 6.00974 | 17596 ft | 309 kts | 296° |
| 2026-04-29 12:46 | 45.61918 | 5.98212 | 17221 ft | 308 kts | 296° |
| 2026-04-29 12:47 | 45.62890 | 5.95486 | 16865 ft | 307 kts | 296° |
| 2026-04-29 12:47 | 45.63858 | 5.92776 | 16504 ft | 306 kts | 296° |
| 2026-04-29 12:47 | 45.64824 | 5.90066 | 16137 ft | 306 kts | 296° |
| 2026-04-29 12:47 | 45.65789 | 5.87359 | 15789 ft | 305 kts | 296° |
| 2026-04-29 12:48 | 45.66751 | 5.84653 | 15439 ft | 305 kts | 296° |
| 2026-04-29 12:48 | 45.67708 | 5.81955 | 15084 ft | 304 kts | 295° |
| 2026-04-29 12:48 | 45.68665 | 5.79251 | 14703 ft | 305 kts | 296° |
| 2026-04-29 12:48 | 45.69626 | 5.76541 | 14331 ft | 306 kts | 296° |
| 2026-04-29 12:49 | 45.70587 | 5.73829 | 13981 ft | 306 kts | 296° |
| 2026-04-29 12:49 | 45.71564 | 5.71073 | 13586 ft | 306 kts | 296° |
| 2026-04-29 12:49 | 45.72526 | 5.68361 | 13230 ft | 305 kts | 295° |
| 2026-04-29 12:49 | 45.73479 | 5.65662 | 12856 ft | 303 kts | 295° |
| 2026-04-29 12:50 | 45.74428 | 5.62969 | 12486 ft | 302 kts | 295° |
| 2026-04-29 12:50 | 45.75370 | 5.60292 | 12128 ft | 301 kts | 295° |
| 2026-04-29 12:50 | 45.76309 | 5.57622 | 11756 ft | 300 kts | 295° |
| 2026-04-29 12:50 | 45.77243 | 5.54960 | 11392 ft | 298 kts | 295° |
| 2026-04-29 12:51 | 45.78183 | 5.52279 | 11010 ft | 298 kts | 295° |
| 2026-04-29 12:51 | 45.79113 | 5.49629 | 10625 ft | 297 kts | 295° |
| 2026-04-29 12:51 | 45.80039 | 5.46987 | 10246 ft | 296 kts | 295° |
| 2026-04-29 12:51 | 45.80966 | 5.44351 | 9848 ft | 296 kts | 296° |
| 2026-04-29 12:52 | 45.81885 | 5.41732 | 9468 ft | 293 kts | 296° |
| 2026-04-29 12:52 | 45.82799 | 5.39121 | 9044 ft | 292 kts | 296° |
| 2026-04-29 12:52 | 45.83707 | 5.36522 | 8635 ft | 291 kts | 296° |
| 2026-04-29 12:52 | 45.84622 | 5.33899 | 8227 ft | 289 kts | 296° |
| 2026-04-29 12:53 | 45.85517 | 5.31324 | 7808 ft | 288 kts | 296° |
| 2026-04-29 12:53 | 45.86412 | 5.28751 | 7386 ft | 288 kts | 296° |
| 2026-04-29 12:53 | 45.87302 | 5.26189 | 7018 ft | 286 kts | 296° |
| 2026-04-29 12:53 | 45.88223 | 5.23644 | 6618 ft | 286 kts | 302° |
| 2026-04-29 12:54 | 45.89463 | 5.21456 | 6460 ft | 277 kts | 317° |
| 2026-04-29 12:54 | 45.90869 | 5.19633 | 6141 ft | 271 kts | 319° |
| 2026-04-29 12:54 | 45.92191 | 5.17778 | 5968 ft | 260 kts | 308° |
| 2026-04-29 12:54 | 45.93015 | 5.15541 | 5845 ft | 249 kts | 287° |
| 2026-04-29 12:55 | 45.93256 | 5.13099 | 5443 ft | 250 kts | 266° |
| 2026-04-29 12:55 | 45.93082 | 5.10605 | 5033 ft | 251 kts | 262° |
| 2026-04-29 12:55 | 45.92593 | 5.08208 | 4646 ft | 246 kts | 233° |
| 2026-04-29 12:55 | 45.91275 | 5.06781 | 4325 ft | 239 kts | 195° |
| 2026-04-29 12:56 | 45.89609 | 5.06867 | 3956 ft | 234 kts | 161° |
| 2026-04-29 12:56 | 45.88072 | 5.07451 | 3640 ft | 230 kts | 171° |
| 2026-04-29 12:56 | 45.86514 | 5.07635 | 3353 ft | 219 kts | 175° |
| 2026-04-29 12:56 | 45.85046 | 5.07786 | 3079 ft | 207 kts | 173° |
| 2026-04-29 12:57 | 45.83560 | 5.07960 | 2824 ft | 196 kts | 172° |
| 2026-04-29 12:57 | 45.82265 | 5.08117 | 2554 ft | 185 kts | 173° |
| 2026-04-29 12:57 | 45.81004 | 5.08270 | 2304 ft | 173 kts | 173° |
| 2026-04-29 12:57 | 45.79866 | 5.08409 | 2092 ft | 156 kts | 172° |
| 2026-04-29 12:58 | 45.78817 | 5.08536 | 1892 ft | 146 kts | 172° |
| 2026-04-29 12:58 | 45.77838 | 5.08656 | 1698 ft | 140 kts | 172° |
| 2026-04-29 12:58 | 45.76870 | 5.08775 | 1500 ft | 137 kts | 172° |
| 2026-04-29 12:58 | 45.75929 | 5.08893 | 1330 ft | 136 kts | 172° |
| 2026-04-29 12:59 | 45.74994 | 5.09004 | 1146 ft | 135 kts | 172° |
| 2026-04-29 12:59 | 45.74052 | 5.09119 | 952 ft | 136 kts | 172° |
| 2026-04-29 12:59 | 45.73096 | 5.09239 | 802 ft | 129 kts | 173° |
| 2026-04-29 12:59 | 45.72318 | 5.09330 | 814 ft | 90 kts | 175° |
| 2026-04-29 13:00 | 45.71859 | 5.09389 | 820 ft | 45 kts | 174° |
| 2026-04-29 13:00 | 45.71562 | 5.09428 | 825 ft | 41 kts | 175° |
| 2026-04-29 13:00 | 45.71291 | 5.09460 | 830 ft | 38 kts | 176° |
| 2026-04-29 13:00 | 45.71113 | 5.09417 | 829 ft | 21 kts | 240° |
| 2026-04-29 13:01 | 45.71096 | 5.09201 | 823 ft | 24 kts | 265° |
| 2026-04-29 13:01 | 45.71080 | 5.08976 | 821 ft | 23 kts | 263° |
| 2026-04-29 13:01 | 45.71097 | 5.08747 | 819 ft | 24 kts | 285° |
| 2026-04-29 13:01 | 45.71179 | 5.08558 | 815 ft | 24 kts | 340° |
| 2026-04-29 13:02 | 45.71352 | 5.08534 | 812 ft | 26 kts | 355° |
| 2026-04-29 13:02 | 45.71548 | 5.08510 | 803 ft | 30 kts | 355° |
| 2026-04-29 13:02 | 45.71672 | 5.08476 | 802 ft | 12 kts | 317° |
| 2026-04-29 13:02 | 45.71678 | 5.08345 | 800 ft | 15 kts | 262° |
| 2026-04-29 13:03 | 45.71683 | 5.08204 | 801 ft | 13 kts | 284° |
| 2026-04-29 13:03 | 45.71639 | 5.08163 | 802 ft | 7 kts | 192° |
| 2026-04-29 13:03 | 45.71611 | 5.08152 | 802 ft | 2 kts | 195° |
| 2026-04-29 13:03 | 45.71610 | 5.08152 | 802 ft | 0 kts | 195° |